M Y Suncoco — SY7908 — position and weather

sailwx.info

Track history (hours):
 
Tides and Currents Weather Stations Pressure Air Temp Water Temp Dewpoint Dewpoint Depression Visibility Wind Speed Wind Dir Waves Ship Positions

M Y Suncoco

Last reported at 2018-May-20 06:12 UTC. Time now 2018-May-20 12:14 UTC.
Position N 37°55' E 023°42'.

Length 27 m; draft 2.8 m.

Type: Other ship. MMSI: 239112700.

Date/timePositionNaut miles runAvg speedWind from/ knotsBaromVisibWave heightAir tempDewpointWater temp
2018-May-20 06:12N 37°55' E 023°42'0 0.0
2018-May-20 06:00N 37°55' E 023°42'0 0.0
2018-May-20 05:31N 37°55' E 023°42'2 3.2
2018-May-20 05:00N 37°53' E 023°42'611.2
2018-May-20 04:30N 37°48' E 023°45'49 2.3
2018-May-19 06:44N 37°34' E 024°45'311.5
2018-May-19 06:30N 37°34' E 024°48'1311.3
2018-May-19 05:24N 37°30' E 025°03'411.2
2018-May-19 05:00N 37°29' E 025°09'611.1
2018-May-19 04:30N 37°28' E 025°15'3 6.6
2018-May-19 03:59N 37°27' E 025°20'0 0.0
2018-May-19 03:28N 37°27' E 025°20'0 0.0
2018-May-19 03:00N 37°27' E 025°20'0 0.0
2018-May-19 02:30N 37°27' E 025°20'0 0.0
2018-May-19 01:58N 37°27' E 025°20'0 0.0
2018-May-19 01:30N 37°27' E 025°20'0 0.0
2018-May-19 00:59N 37°27' E 025°20'0 0.0
2018-May-19 00:28N 37°27' E 025°20'0 0.0
2018-May-19 00:00N 37°27' E 025°20'0 0.0
2018-May-18 23:29N 37°27' E 025°20'0 0.0
2018-May-18 23:00N 37°27' E 025°20'0 0.0
2018-May-18 22:30N 37°27' E 025°20'0 0.0
2018-May-18 22:00N 37°27' E 025°20'0 0.0
2018-May-18 21:30N 37°27' E 025°20'0 0.0
2018-May-18 21:00N 37°27' E 025°20'0 0.0
2018-May-18 20:30N 37°27' E 025°20'0 0.0
2018-May-18 19:59N 37°27' E 025°20'0 0.0
2018-May-18 19:28N 37°27' E 025°20'0 0.0
2018-May-18 18:57N 37°27' E 025°20'0 0.0
2018-May-18 18:29N 37°27' E 025°20'0 0.8
2018-May-18 18:00N 37°27' E 025°19'3 5.9
2018-May-18 17:30N 37°24' E 025°18'2 3.6
2018-May-18 17:00N 37°25' E 025°20'0 0.0
2018-May-18 16:30N 37°25' E 025°20'0 0.0
2018-May-18 16:00N 37°25' E 025°20'0 0.0
2018-May-18 15:30N 37°25' E 025°20'0 0.0
2018-May-18 14:59N 37°25' E 025°20'0 0.0
2018-May-18 14:30N 37°25' E 025°20'0 0.0
2018-May-18 14:00N 37°25' E 025°20'0 0.0
2018-May-18 13:30N 37°25' E 025°20'0 0.0
2018-May-18 13:00N 37°25' E 025°20'0 0.0
2018-May-18 12:30N 37°25' E 025°20'0 0.0
2018-May-18 12:01N 37°25' E 025°20'0 0.1
2018-May-18 11:30N 37°25' E 025°20'2 4.0
2018-May-18 11:00N 37°25' E 025°18'2 4.4
2018-May-18 10:28N 37°27' E 025°20'0 0.0
2018-May-18 09:59N 37°27' E 025°20'0 0.0
2018-May-18 09:19N 37°27' E 025°20'0 0.0
2018-May-18 08:50N 37°27' E 025°20'0 0.0
2018-May-18 08:30N 37°27' E 025°20'0 0.0
2018-May-18 07:49N 37°27' E 025°20'0 0.0
2018-May-18 07:30N 37°27' E 025°20'0 0.0
2018-May-18 07:00N 37°27' E 025°20'0 0.0
2018-May-18 06:24N 37°27' E 025°20'0 0.0
2018-May-18 05:57N 37°27' E 025°20'0 0.0
2018-May-18 05:29N 37°27' E 025°20'0 0.0
2018-May-18 04:55N 37°27' E 025°20'0 0.0
2018-May-18 04:30N 37°27' E 025°20'0 0.0
2018-May-18 04:00N 37°27' E 025°20'0 0.0
2018-May-18 03:16N 37°27' E 025°20'0 0.0
2018-May-18 02:52N 37°27' E 025°20'0 0.0
2018-May-18 02:29N 37°27' E 025°20'0 0.0
2018-May-18 01:55N 37°27' E 025°20'0 0.0
2018-May-18 01:25N 37°27' E 025°20'0 0.0
2018-May-18 00:54N 37°27' E 025°20'0 0.0
2018-May-18 00:20N 37°27' E 025°20'0 0.0
2018-May-17 23:56N 37°27' E 025°20'0 0.0
2018-May-17 23:08N 37°27' E 025°20'0 0.0
2018-May-17 23:00N 37°27' E 025°20'0 0.0
2018-May-17 22:20N 37°27' E 025°20'0 0.0
2018-May-17 21:12N 37°27' E 025°20'0 0.0
2018-May-17 18:44N 37°27' E 025°20'0 0.0
2018-May-17 18:30N 37°27' E 025°20'0 0.0
2018-May-17 18:00N 37°27' E 025°20'0 0.0
2018-May-17 17:27N 37°27' E 025°20'0 0.0
2018-May-17 17:00N 37°27' E 025°20'0 0.0
2018-May-17 16:29N 37°27' E 025°20'0 0.0
2018-May-17 15:46N 37°27' E 025°20'0 1.1
2018-May-17 15:30N 37°27' E 025°19'4 8.6
2018-May-17 15:01N 37°23' E 025°17'2 4.3
2018-May-17 14:30N 37°23' E 025°14'0 0.0
2018-May-17 14:00N 37°23' E 025°14'2 4.3
2018-May-17 13:30N 37°22' E 025°12'911.2
2018-May-17 12:41N 37°22' E 025°01'211.5
2018-May-17 12:30N 37°22' E 024°58'510.0
2018-May-17 12:00N 37°23' E 024°52'1 1.5
2018-May-17 11:12N 37°24' E 024°53'0 0.0
2018-May-17 09:13N 37°24' E 024°53'0 0.0
2018-May-17 08:59N 37°24' E 024°53'0 0.0
2018-May-17 08:29N 37°24' E 024°53'0 0.0
2018-May-17 07:59N 37°24' E 024°53'0 0.4
2018-May-17 07:19N 37°24' E 024°53'310.6
2018-May-17 07:01N 37°24' E 024°48'6111.1
2018-May-17 01:28N 37°30' E 023°32'4 8.0
2018-May-17 01:00N 37°30' E 023°27'0 0.1
2018-May-17 00:30N 37°30' E 023°27'0 0.0
2018-May-17 00:00N 37°30' E 023°27'0 0.0
2018-May-16 23:30N 37°30' E 023°27'0 0.0
2018-May-16 23:00N 37°30' E 023°27'0 0.0
2018-May-16 22:30N 37°30' E 023°27'0 0.0
2018-May-16 22:00N 37°30' E 023°27'0 0.0
2018-May-16 21:29N 37°30' E 023°27'0 0.0
2018-May-16 20:57N 37°30' E 023°27'0 0.0
2018-May-16 20:18N 37°30' E 023°27'0 0.0
2018-May-16 20:00N 37°30' E 023°27'0 0.0
2018-May-16 19:30N 37°30' E 023°27'0 0.0
2018-May-16 19:00N 37°30' E 023°27'0 0.0
2018-May-16 18:30N 37°30' E 023°27'0 0.0
2018-May-16 18:00N 37°30' E 023°27'0 0.0
2018-May-16 17:28N 37°30' E 023°27'0 0.0
2018-May-16 17:00N 37°30' E 023°27'0 0.0
2018-May-16 16:30N 37°30' E 023°27'0 0.0
2018-May-16 16:00N 37°30' E 023°27'1 0.1
2018-May-16 08:50N 37°31' E 023°26'5 8.9
2018-May-16 08:16N 37°35' E 023°28'311.3
2018-May-16 08:01N 37°38' E 023°30'611.5
2018-May-16 07:30N 37°43' E 023°34'611.2
2018-May-16 07:01N 37°48' E 023°38'611.0
2018-May-16 06:30N 37°53' E 023°41'2 4.9
2018-May-16 06:00N 37°55' E 023°42'0 0.0
2018-May-16 05:30N 37°55' E 023°42'0 0.0
2018-May-16 05:00N 37°55' E 023°42'0 0.0
2018-May-16 04:30N 37°55' E 023°42'0 0.0
2018-May-16 04:00N 37°55' E 023°42'0 0.0
2018-May-16 03:30N 37°55' E 023°42'0 0.0
2018-May-16 03:01N 37°55' E 023°42'0 0.0
2018-May-16 02:30N 37°55' E 023°42'0 0.0
2018-May-16 02:01N 37°55' E 023°42'0 0.0
2018-May-16 01:30N 37°55' E 023°42'0 0.0
2018-May-16 01:01N 37°55' E 023°42'0 0.0
2018-May-16 00:31N 37°55' E 023°42'0 0.0
2018-May-16 00:00N 37°55' E 023°42'0 0.0
2018-May-15 23:31N 37°55' E 023°42'0 0.0
2018-May-15 23:00N 37°55' E 023°42'0 0.0
2018-May-15 22:30N 37°55' E 023°42'0 0.0
2018-May-15 22:00N 37°55' E 023°42'0 0.0
2018-May-15 21:30N 37°55' E 023°42'0 0.0
2018-May-15 21:00N 37°55' E 023°42'0 0.0
2018-May-15 20:30N 37°55' E 023°42'0 0.0
2018-May-15 20:00N 37°55' E 023°42'0 0.0
2018-May-15 19:30N 37°55' E 023°42'0 0.0
2018-May-15 19:00N 37°55' E 023°42'0 0.0
2018-May-15 18:30N 37°55' E 023°42'0 0.0
2018-May-15 18:00N 37°55' E 023°42'0 0.0
2018-May-15 17:30N 37°55' E 023°42'0 0.0
2018-May-15 17:00N 37°55' E 023°42'0 0.0
2018-May-15 16:31N 37°55' E 023°42'0 0.0
2018-May-15 16:01N 37°55' E 023°42'0 0.0
2018-May-15 15:30N 37°55' E 023°42'0 0.0
2018-May-15 15:01N 37°55' E 023°42'0 0.0
2018-May-15 14:30N 37°55' E 023°42'0 0.0
2018-May-15 14:00N 37°55' E 023°42'0 0.0
2018-May-15 13:31N 37°55' E 023°42'0 0.0
2018-May-15 13:00N 37°55' E 023°42'0 0.0
2018-May-15 12:30N 37°55' E 023°42'0 0.0
2018-May-15 12:00N 37°55' E 023°42'0 0.0
2018-May-15 11:31N 37°55' E 023°42'0 0.0
2018-May-15 11:00N 37°55' E 023°42'0 0.0
2018-May-15 10:31N 37°55' E 023°42'0 0.0
2018-May-15 10:00N 37°55' E 023°42'0 0.0
2018-May-15 09:30N 37°55' E 023°42'0 0.0
2018-May-15 09:01N 37°55' E 023°42'0 0.0
2018-May-15 08:30N 37°55' E 023°42'0 0.0
2018-May-15 08:00N 37°55' E 023°42'0 0.0
2018-May-15 07:30N 37°55' E 023°42'0 0.0
2018-May-15 07:00N 37°55' E 023°42'0 0.0
2018-May-15 06:30N 37°55' E 023°42'0 0.0
2018-May-15 06:01N 37°55' E 023°42'0 0.0
2018-May-15 05:30N 37°55' E 023°42'0 0.0
2018-May-15 05:00N 37°55' E 023°42'0 0.0
2018-May-15 04:31N 37°55' E 023°42'0 0.0
2018-May-15 04:00N 37°55' E 023°42'0 0.0
2018-May-15 03:31N 37°55' E 023°42'0 0.0
2018-May-15 03:00N 37°55' E 023°42'0 0.0
2018-May-15 02:30N 37°55' E 023°42'0 0.0
2018-May-15 02:01N 37°55' E 023°42'0 0.0
2018-May-15 01:30N 37°55' E 023°42'0 0.0
2018-May-15 01:01N 37°55' E 023°42'0 0.0
2018-May-15 00:31N 37°55' E 023°42'0 0.0
2018-May-14 23:59N 37°55' E 023°42'0 0.0
2018-May-14 23:30N 37°55' E 023°42'0 0.0
2018-May-14 23:00N 37°55' E 023°42'0 0.0
2018-May-14 22:31N 37°55' E 023°42'0 0.0
2018-May-14 21:59N 37°55' E 023°42'0 0.0
2018-May-14 21:31N 37°55' E 023°42'0 0.0
2018-May-14 21:00N 37°55' E 023°42'0 0.0
2018-May-14 20:31N 37°55' E 023°42'0 0.0
2018-May-14 20:00N 37°55' E 023°42'0 0.0
2018-May-14 19:30N 37°55' E 023°42'0 0.0
2018-May-14 19:00N 37°55' E 023°42'0 0.0
2018-May-14 18:30N 37°55' E 023°42'0 0.0
2018-May-14 18:00N 37°55' E 023°42'0 0.0
2018-May-14 17:30N 37°55' E 023°42'0 0.0
2018-May-14 17:01N 37°55' E 023°42'0 0.0
2018-May-14 16:30N 37°55' E 023°42'0 0.0
2018-May-14 16:01N 37°55' E 023°42'0 0.0
2018-May-14 15:30N 37°55' E 023°42'0 0.0
2018-May-14 15:00N 37°55' E 023°42'0 0.0
2018-May-14 14:30N 37°55' E 023°42'0 0.0
2018-May-14 14:01N 37°55' E 023°42'0 0.0
2018-May-14 13:30N 37°55' E 023°42'0 0.0
2018-May-14 13:00N 37°55' E 023°42'0 0.0
2018-May-14 12:31N 37°55' E 023°42'0 0.0
2018-May-14 12:01N 37°55' E 023°42'0 0.0
2018-May-14 11:30N 37°55' E 023°42'3 6.2
2018-May-14 11:01N 37°52' E 023°40'611.3
2018-May-14 10:30N 37°48' E 023°36'611.1
2018-May-14 10:00N 37°43' E 023°33'710.5
2018-May-14 09:19N 37°37' E 023°28'311.2
2018-May-14 09:00N 37°33' E 023°26'3 0.3
2018-May-13 20:58N 37°30' E 023°27'0 0.0
2018-May-13 20:30N 37°30' E 023°27'0 0.0
2018-May-13 20:00N 37°30' E 023°27'0 0.0
2018-May-13 19:28N 37°30' E 023°27'0 0.0
2018-May-13 18:57N 37°30' E 023°27'0 0.0
2018-May-13 18:30N 37°30' E 023°27'0 0.0
2018-May-13 15:42N 37°30' E 023°27'0 0.0
2018-May-13 15:29N 37°30' E 023°27'0 0.0
2018-May-13 14:45N 37°30' E 023°27'0 0.0
2018-May-13 14:27N 37°30' E 023°27'0 0.0
2018-May-13 13:57N 37°30' E 023°27'0 0.0
2018-May-13 13:00N 37°30' E 023°27'0 0.0
2018-May-12 16:03N 37°30' E 023°27'0 2.1
2018-May-12 15:54N 37°30' E 023°27'6 6.2
2018-May-12 14:52N 37°23' E 023°26'  
2018-May-10 08:07N 37°13' E 024°49'111.0
2018-May-10 08:00N 37°13' E 024°50'511.0
2018-May-10 07:30N 37°15' E 024°57'611.0
2018-May-10 06:57N 37°17' E 025°04'511.1
2018-May-10 06:30N 37°19' E 025°10'  
Track history (hours):
 
Tides and Currents Weather Stations Pressure Air Temp Water Temp Dewpoint Dewpoint Depression Visibility Wind Speed Wind Dir Waves Ship Positions

M Y Suncoco

Last reported at 2018-May-20 06:12 UTC. Time now 2018-May-20 12:14 UTC.
Position N 37°55' E 023°42'.

Length 27 m; draft 2.8 m.

Type: Other ship. MMSI: 239112700.

Date/timePositionNaut miles runAvg speedWind from/ knotsBaromVisibWave heightAir tempDewpointWater temp
2018-May-20 06:12N 37°55' E 023°42'0 0.0
2018-May-20 06:00N 37°55' E 023°42'0 0.0
2018-May-20 05:31N 37°55' E 023°42'2 3.2
2018-May-20 05:00N 37°53' E 023°42'611.2
2018-May-20 04:30N 37°48' E 023°45'49 2.3
2018-May-19 06:44N 37°34' E 024°45'311.5
2018-May-19 06:30N 37°34' E 024°48'1311.3
2018-May-19 05:24N 37°30' E 025°03'411.2
2018-May-19 05:00N 37°29' E 025°09'611.1
2018-May-19 04:30N 37°28' E 025°15'3 6.6
2018-May-19 03:59N 37°27' E 025°20'0 0.0
2018-May-19 03:28N 37°27' E 025°20'0 0.0
2018-May-19 03:00N 37°27' E 025°20'0 0.0
2018-May-19 02:30N 37°27' E 025°20'0 0.0
2018-May-19 01:58N 37°27' E 025°20'0 0.0
2018-May-19 01:30N 37°27' E 025°20'0 0.0
2018-May-19 00:59N 37°27' E 025°20'0 0.0
2018-May-19 00:28N 37°27' E 025°20'0 0.0
2018-May-19 00:00N 37°27' E 025°20'0 0.0
2018-May-18 23:29N 37°27' E 025°20'0 0.0
2018-May-18 23:00N 37°27' E 025°20'0 0.0
2018-May-18 22:30N 37°27' E 025°20'0 0.0
2018-May-18 22:00N 37°27' E 025°20'0 0.0
2018-May-18 21:30N 37°27' E 025°20'0 0.0
2018-May-18 21:00N 37°27' E 025°20'0 0.0
2018-May-18 20:30N 37°27' E 025°20'0 0.0
2018-May-18 19:59N 37°27' E 025°20'0 0.0
2018-May-18 19:28N 37°27' E 025°20'0 0.0
2018-May-18 18:57N 37°27' E 025°20'0 0.0
2018-May-18 18:29N 37°27' E 025°20'0 0.8
2018-May-18 18:00N 37°27' E 025°19'3 5.9
2018-May-18 17:30N 37°24' E 025°18'2 3.6
2018-May-18 17:00N 37°25' E 025°20'0 0.0
2018-May-18 16:30N 37°25' E 025°20'0 0.0
2018-May-18 16:00N 37°25' E 025°20'0 0.0
2018-May-18 15:30N 37°25' E 025°20'0 0.0
2018-May-18 14:59N 37°25' E 025°20'0 0.0
2018-May-18 14:30N 37°25' E 025°20'0 0.0
2018-May-18 14:00N 37°25' E 025°20'0 0.0
2018-May-18 13:30N 37°25' E 025°20'0 0.0
2018-May-18 13:00N 37°25' E 025°20'0 0.0
2018-May-18 12:30N 37°25' E 025°20'0 0.0
2018-May-18 12:01N 37°25' E 025°20'0 0.1
2018-May-18 11:30N 37°25' E 025°20'2 4.0
2018-May-18 11:00N 37°25' E 025°18'2 4.4
2018-May-18 10:28N 37°27' E 025°20'0 0.0
2018-May-18 09:59N 37°27' E 025°20'0 0.0
2018-May-18 09:19N 37°27' E 025°20'0 0.0
2018-May-18 08:50N 37°27' E 025°20'0 0.0
2018-May-18 08:30N 37°27' E 025°20'0 0.0
2018-May-18 07:49N 37°27' E 025°20'0 0.0
2018-May-18 07:30N 37°27' E 025°20'0 0.0
2018-May-18 07:00N 37°27' E 025°20'0 0.0
2018-May-18 06:24N 37°27' E 025°20'0 0.0
2018-May-18 05:57N 37°27' E 025°20'0 0.0
2018-May-18 05:29N 37°27' E 025°20'0 0.0
2018-May-18 04:55N 37°27' E 025°20'0 0.0
2018-May-18 04:30N 37°27' E 025°20'0 0.0
2018-May-18 04:00N 37°27' E 025°20'0 0.0
2018-May-18 03:16N 37°27' E 025°20'0 0.0
2018-May-18 02:52N 37°27' E 025°20'0 0.0
2018-May-18 02:29N 37°27' E 025°20'0 0.0
2018-May-18 01:55N 37°27' E 025°20'0 0.0
2018-May-18 01:25N 37°27' E 025°20'0 0.0
2018-May-18 00:54N 37°27' E 025°20'0 0.0
2018-May-18 00:20N 37°27' E 025°20'0 0.0
2018-May-17 23:56N 37°27' E 025°20'0 0.0
2018-May-17 23:08N 37°27' E 025°20'0 0.0
2018-May-17 23:00N 37°27' E 025°20'0 0.0
2018-May-17 22:20N 37°27' E 025°20'0 0.0
2018-May-17 21:12N 37°27' E 025°20'0 0.0
2018-May-17 18:44N 37°27' E 025°20'0 0.0
2018-May-17 18:30N 37°27' E 025°20'0 0.0
2018-May-17 18:00N 37°27' E 025°20'0 0.0
2018-May-17 17:27N 37°27' E 025°20'0 0.0
2018-May-17 17:00N 37°27' E 025°20'0 0.0
2018-May-17 16:29N 37°27' E 025°20'0 0.0
2018-May-17 15:46N 37°27' E 025°20'0 1.1
2018-May-17 15:30N 37°27' E 025°19'4 8.6
2018-May-17 15:01N 37°23' E 025°17'2 4.3
2018-May-17 14:30N 37°23' E 025°14'0 0.0
2018-May-17 14:00N 37°23' E 025°14'2 4.3
2018-May-17 13:30N 37°22' E 025°12'911.2
2018-May-17 12:41N 37°22' E 025°01'211.5
2018-May-17 12:30N 37°22' E 024°58'510.0
2018-May-17 12:00N 37°23' E 024°52'1 1.5
2018-May-17 11:12N 37°24' E 024°53'0 0.0
2018-May-17 09:13N 37°24' E 024°53'0 0.0
2018-May-17 08:59N 37°24' E 024°53'0 0.0
2018-May-17 08:29N 37°24' E 024°53'0 0.0
2018-May-17 07:59N 37°24' E 024°53'0 0.4
2018-May-17 07:19N 37°24' E 024°53'310.6
2018-May-17 07:01N 37°24' E 024°48'6111.1
2018-May-17 01:28N 37°30' E 023°32'4 8.0
2018-May-17 01:00N 37°30' E 023°27'0 0.1
2018-May-17 00:30N 37°30' E 023°27'0 0.0
2018-May-17 00:00N 37°30' E 023°27'0 0.0
2018-May-16 23:30N 37°30' E 023°27'0 0.0
2018-May-16 23:00N 37°30' E 023°27'0 0.0
2018-May-16 22:30N 37°30' E 023°27'0 0.0
2018-May-16 22:00N 37°30' E 023°27'0 0.0
2018-May-16 21:29N 37°30' E 023°27'0 0.0
2018-May-16 20:57N 37°30' E 023°27'0 0.0
2018-May-16 20:18N 37°30' E 023°27'0 0.0
2018-May-16 20:00N 37°30' E 023°27'0 0.0
2018-May-16 19:30N 37°30' E 023°27'0 0.0
2018-May-16 19:00N 37°30' E 023°27'0 0.0
2018-May-16 18:30N 37°30' E 023°27'0 0.0
2018-May-16 18:00N 37°30' E 023°27'0 0.0
2018-May-16 17:28N 37°30' E 023°27'0 0.0
2018-May-16 17:00N 37°30' E 023°27'0 0.0
2018-May-16 16:30N 37°30' E 023°27'0 0.0
2018-May-16 16:00N 37°30' E 023°27'1 0.1
2018-May-16 08:50N 37°31' E 023°26'5 8.9
2018-May-16 08:16N 37°35' E 023°28'311.3
2018-May-16 08:01N 37°38' E 023°30'611.5
2018-May-16 07:30N 37°43' E 023°34'611.2
2018-May-16 07:01N 37°48' E 023°38'611.0
2018-May-16 06:30N 37°53' E 023°41'2 4.9
2018-May-16 06:00N 37°55' E 023°42'0 0.0
2018-May-16 05:30N 37°55' E 023°42'0 0.0
2018-May-16 05:00N 37°55' E 023°42'0 0.0
2018-May-16 04:30N 37°55' E 023°42'0 0.0
2018-May-16 04:00N 37°55' E 023°42'0 0.0
2018-May-16 03:30N 37°55' E 023°42'0 0.0
2018-May-16 03:01N 37°55' E 023°42'0 0.0
2018-May-16 02:30N 37°55' E 023°42'0 0.0
2018-May-16 02:01N 37°55' E 023°42'0 0.0
2018-May-16 01:30N 37°55' E 023°42'0 0.0
2018-May-16 01:01N 37°55' E 023°42'0 0.0
2018-May-16 00:31N 37°55' E 023°42'0 0.0
2018-May-16 00:00N 37°55' E 023°42'0 0.0
2018-May-15 23:31N 37°55' E 023°42'0 0.0
2018-May-15 23:00N 37°55' E 023°42'0 0.0
2018-May-15 22:30N 37°55' E 023°42'0 0.0
2018-May-15 22:00N 37°55' E 023°42'0 0.0
2018-May-15 21:30N 37°55' E 023°42'0 0.0
2018-May-15 21:00N 37°55' E 023°42'0 0.0
2018-May-15 20:30N 37°55' E 023°42'0 0.0
2018-May-15 20:00N 37°55' E 023°42'0 0.0
2018-May-15 19:30N 37°55' E 023°42'0 0.0
2018-May-15 19:00N 37°55' E 023°42'0 0.0
2018-May-15 18:30N 37°55' E 023°42'0 0.0
2018-May-15 18:00N 37°55' E 023°42'0 0.0
2018-May-15 17:30N 37°55' E 023°42'0 0.0
2018-May-15 17:00N 37°55' E 023°42'0 0.0
2018-May-15 16:31N 37°55' E 023°42'0 0.0
2018-May-15 16:01N 37°55' E 023°42'0 0.0
2018-May-15 15:30N 37°55' E 023°42'0 0.0
2018-May-15 15:01N 37°55' E 023°42'0 0.0
2018-May-15 14:30N 37°55' E 023°42'0 0.0
2018-May-15 14:00N 37°55' E 023°42'0 0.0
2018-May-15 13:31N 37°55' E 023°42'0 0.0
2018-May-15 13:00N 37°55' E 023°42'0 0.0
2018-May-15 12:30N 37°55' E 023°42'0 0.0
2018-May-15 12:00N 37°55' E 023°42'0 0.0
2018-May-15 11:31N 37°55' E 023°42'0 0.0
2018-May-15 11:00N 37°55' E 023°42'0 0.0
2018-May-15 10:31N 37°55' E 023°42'0 0.0
2018-May-15 10:00N 37°55' E 023°42'0 0.0
2018-May-15 09:30N 37°55' E 023°42'0 0.0
2018-May-15 09:01N 37°55' E 023°42'0 0.0
2018-May-15 08:30N 37°55' E 023°42'0 0.0
2018-May-15 08:00N 37°55' E 023°42'0 0.0
2018-May-15 07:30N 37°55' E 023°42'0 0.0
2018-May-15 07:00N 37°55' E 023°42'0 0.0
2018-May-15 06:30N 37°55' E 023°42'0 0.0
2018-May-15 06:01N 37°55' E 023°42'0 0.0
2018-May-15 05:30N 37°55' E 023°42'0 0.0
2018-May-15 05:00N 37°55' E 023°42'0 0.0
2018-May-15 04:31N 37°55' E 023°42'0 0.0
2018-May-15 04:00N 37°55' E 023°42'0 0.0
2018-May-15 03:31N 37°55' E 023°42'0 0.0
2018-May-15 03:00N 37°55' E 023°42'0 0.0
2018-May-15 02:30N 37°55' E 023°42'0 0.0
2018-May-15 02:01N 37°55' E 023°42'0 0.0
2018-May-15 01:30N 37°55' E 023°42'0 0.0
2018-May-15 01:01N 37°55' E 023°42'0 0.0
2018-May-15 00:31N 37°55' E 023°42'0 0.0
2018-May-14 23:59N 37°55' E 023°42'0 0.0
2018-May-14 23:30N 37°55' E 023°42'0 0.0
2018-May-14 23:00N 37°55' E 023°42'0 0.0
2018-May-14 22:31N 37°55' E 023°42'0 0.0
2018-May-14 21:59N 37°55' E 023°42'0 0.0
2018-May-14 21:31N 37°55' E 023°42'0 0.0
2018-May-14 21:00N 37°55' E 023°42'0 0.0
2018-May-14 20:31N 37°55' E 023°42'0 0.0
2018-May-14 20:00N 37°55' E 023°42'0 0.0
2018-May-14 19:30N 37°55' E 023°42'0 0.0
2018-May-14 19:00N 37°55' E 023°42'0 0.0
2018-May-14 18:30N 37°55' E 023°42'0 0.0
2018-May-14 18:00N 37°55' E 023°42'0 0.0
2018-May-14 17:30N 37°55' E 023°42'0 0.0
2018-May-14 17:01N 37°55' E 023°42'0 0.0
2018-May-14 16:30N 37°55' E 023°42'0 0.0
2018-May-14 16:01N 37°55' E 023°42'0 0.0
2018-May-14 15:30N 37°55' E 023°42'0 0.0
2018-May-14 15:00N 37°55' E 023°42'0 0.0
2018-May-14 14:30N 37°55' E 023°42'0 0.0
2018-May-14 14:01N 37°55' E 023°42'0 0.0
2018-May-14 13:30N 37°55' E 023°42'0 0.0
2018-May-14 13:00N 37°55' E 023°42'0 0.0
2018-May-14 12:31N 37°55' E 023°42'0 0.0
2018-May-14 12:01N 37°55' E 023°42'0 0.0
2018-May-14 11:30N 37°55' E 023°42'3 6.2
2018-May-14 11:01N 37°52' E 023°40'611.3
2018-May-14 10:30N 37°48' E 023°36'611.1
2018-May-14 10:00N 37°43' E 023°33'710.5
2018-May-14 09:19N 37°37' E 023°28'311.2
2018-May-14 09:00N 37°33' E 023°26'3 0.3
2018-May-13 20:58N 37°30' E 023°27'0 0.0
2018-May-13 20:30N 37°30' E 023°27'0 0.0
2018-May-13 20:00N 37°30' E 023°27'0 0.0
2018-May-13 19:28N 37°30' E 023°27'0 0.0
2018-May-13 18:57N 37°30' E 023°27'0 0.0
2018-May-13 18:30N 37°30' E 023°27'0 0.0
2018-May-13 15:42N 37°30' E 023°27'0 0.0
2018-May-13 15:29N 37°30' E 023°27'0 0.0
2018-May-13 14:45N 37°30' E 023°27'0 0.0
2018-May-13 14:27N 37°30' E 023°27'0 0.0
2018-May-13 13:57N 37°30' E 023°27'0 0.0
2018-May-13 13:00N 37°30' E 023°27'0 0.0
2018-May-12 16:03N 37°30' E 023°27'0 2.1
2018-May-12 15:54N 37°30' E 023°27'6 6.2
2018-May-12 14:52N 37°23' E 023°26'  
2018-May-10 08:07N 37°13' E 024°49'111.0
2018-May-10 08:00N 37°13' E 024°50'511.0
2018-May-10 07:30N 37°15' E 024°57'611.0
2018-May-10 06:57N 37°17' E 025°04'511.1
2018-May-10 06:30N 37°19' E 025°10'  

Dump ship's entire track history